PWSweather.com
Personal Weather Stations
Station Observations
PRATO
PratoIT 59100

PratoIT 59100

Lat: 43.8956799, Lon: 11.0845155

Elevation: 164

Station Type: Davis Vantage Vue

http://www.meteoprato.it

High Low Average
Temperature 80.8°F27.1°C 65.0°F18.3°C 71.4°F21.9°C
Dew Point 61.3°F16.3°C 57.9°F14.4°C 60.2°F15.7°C
Winds 10.2 mph 16.4 kmh Calm Calm 4.0 mph SW6.4 kmh SW
Wind Gusts 20.0 mph32.2 kmh 1.0 mph1.6 kmh 9.0 mph14.5 kmh
Humidity 84% 48% 69%
Pressure 30.09 in1019.0 mb 30.04 in1017.3 mb -
Precipitation 0.00 in0.0 mm - -
Hour Temp Dew Point Humidity Winds Wind Gusts Pressure Precip Precip Rate Daily Precip Total
12:00 AM 67.7°F19.8°C 61.3°F16.3°C 80% 3.3 mph SW5.3 kmh SW 7.0 mph11.3 kmh 30.05 in1017.6 mb 0.00 in0.0 mm 0.00 in0.0 mm 0.00 in0.0 mm
12:05 AM 67.7°F19.8°C 61.3°F16.3°C 80% 3.2 mph SSW5.1 kmh SSW 6.0 mph9.7 kmh 30.05 in1017.6 mb 0.00 in0.0 mm 0.00 in0.0 mm 0.00 in0.0 mm
12:10 AM 67.6°F19.8°C 61.2°F16.2°C 80% 2.4 mph SW3.9 kmh SW 6.0 mph9.7 kmh 30.05 in1017.6 mb 0.00 in0.0 mm 0.00 in0.0 mm 0.00 in0.0 mm
12:15 AM 67.6°F19.8°C 61.2°F16.2°C 80% 1.3 mph SW2.1 kmh SW 5.0 mph8.0 kmh 30.06 in1017.9 mb 0.00 in0.0 mm 0.00 in0.0 mm 0.00 in0.0 mm
12:20 AM 67.5°F19.7°C 60.8°F16.0°C 79% 0.8 mph SW1.3 kmh SW 6.0 mph9.7 kmh 30.05 in1017.6 mb 0.00 in0.0 mm 0.00 in0.0 mm 0.00 in0.0 mm
12:25 AM 67.4°F19.7°C 61.0°F16.1°C 80% 1.2 mph SW1.9 kmh SW 6.0 mph9.7 kmh 30.05 in1017.6 mb 0.00 in0.0 mm 0.00 in0.0 mm 0.00 in0.0 mm
12:30 AM 67.3°F19.6°C 61.3°F16.3°C 81% 1.3 mph SW2.1 kmh SW 4.0 mph6.4 kmh 30.05 in1017.6 mb 0.00 in0.0 mm 0.00 in0.0 mm 0.00 in0.0 mm
12:35 AM 67.3°F19.6°C 61.3°F16.3°C 81% 0.9 mph SW1.4 kmh SW 4.0 mph6.4 kmh 30.05 in1017.6 mb 0.00 in0.0 mm 0.00 in0.0 mm 0.00 in0.0 mm
12:40 AM 67.1°F19.5°C 61.4°F16.3°C 82% 0.8 mph SW1.3 kmh SW 5.0 mph8.0 kmh 30.05 in1017.6 mb 0.00 in0.0 mm 0.00 in0.0 mm 0.00 in0.0 mm
12:45 AM 66.9°F19.4°C 61.2°F16.2°C 82% 1.0 mph SW1.6 kmh SW 5.0 mph8.0 kmh 30.05 in1017.6 mb 0.00 in0.0 mm 0.00 in0.0 mm 0.00 in0.0 mm
12:50 AM 66.7°F19.3°C 61.4°F16.3°C 83% 1.4 mph SW2.3 kmh SW 5.0 mph8.0 kmh 30.05 in1017.6 mb 0.00 in0.0 mm 0.00 in0.0 mm 0.00 in0.0 mm
12:55 AM 66.6°F19.2°C 61.3°F16.3°C 83% 2.2 mph SW3.5 kmh SW 6.0 mph9.7 kmh 30.05 in1017.6 mb 0.00 in0.0 mm 0.00 in0.0 mm 0.00 in0.0 mm
01:00 AM 66.6°F19.2°C 61.3°F16.3°C 83% 2.3 mph SW3.7 kmh SW 6.0 mph9.7 kmh 30.05 in1017.6 mb 0.00 in0.0 mm 0.00 in0.0 mm 0.00 in0.0 mm
01:05 AM 66.5°F19.2°C 61.2°F16.2°C 83% 2.0 mph SW3.2 kmh SW 5.0 mph8.0 kmh 30.05 in1017.6 mb 0.00 in0.0 mm 0.00 in0.0 mm 0.00 in0.0 mm
01:10 AM 66.5°F19.2°C 60.8°F16.0°C 82% 2.0 mph SW3.2 kmh SW 5.0 mph8.0 kmh 30.05 in1017.6 mb 0.00 in0.0 mm 0.00 in0.0 mm 0.00 in0.0 mm
01:15 AM 66.5°F19.2°C 61.2°F16.2°C 83% 1.9 mph SW3.1 kmh SW 5.0 mph8.0 kmh 30.05 in1017.6 mb 0.00 in0.0 mm 0.00 in0.0 mm 0.00 in0.0 mm
01:20 AM 66.4°F19.1°C 61.1°F16.2°C 83% 1.9 mph SW3.1 kmh SW 4.0 mph6.4 kmh 30.05 in1017.6 mb 0.00 in0.0 mm 0.00 in0.0 mm 0.00 in0.0 mm
01:25 AM 66.6°F19.2°C 61.3°F16.3°C 83% 1.6 mph SW2.6 kmh SW 4.0 mph6.4 kmh 30.05 in1017.6 mb 0.00 in0.0 mm 0.00 in0.0 mm 0.00 in0.0 mm
01:30 AM 66.5°F19.2°C 60.8°F16.0°C 82% 1.2 mph SW1.9 kmh SW 5.0 mph8.0 kmh 30.05 in1017.6 mb 0.00 in0.0 mm 0.00 in0.0 mm 0.00 in0.0 mm
01:35 AM 66.6°F19.2°C 60.9°F16.1°C 82% 1.2 mph SW1.9 kmh SW 5.0 mph8.0 kmh 30.05 in1017.6 mb 0.00 in0.0 mm 0.00 in0.0 mm 0.00 in0.0 mm
01:40 AM 66.6°F19.2°C 61.3°F16.3°C 83% 1.6 mph SW2.6 kmh SW 8.0 mph12.9 kmh 30.05 in1017.6 mb 0.00 in0.0 mm 0.00 in0.0 mm 0.00 in0.0 mm
01:45 AM 66.5°F19.2°C 60.8°F16.0°C 82% 2.4 mph SW3.9 kmh SW 8.0 mph12.9 kmh 30.05 in1017.6 mb 0.00 in0.0 mm 0.00 in0.0 mm 0.00 in0.0 mm
01:50 AM 66.4°F19.1°C 60.7°F15.9°C 82% 2.7 mph SW4.3 kmh SW 5.0 mph8.0 kmh 30.05 in1017.6 mb 0.00 in0.0 mm 0.00 in0.0 mm 0.00 in0.0 mm
01:55 AM 66.4°F19.1°C 61.1°F16.2°C 83% 2.5 mph SW4.0 kmh SW 6.0 mph9.7 kmh 30.05 in1017.6 mb 0.00 in0.0 mm 0.00 in0.0 mm 0.00 in0.0 mm
02:00 AM 66.4°F19.1°C 61.1°F16.2°C 83% 2.6 mph SW4.2 kmh SW 6.0 mph9.7 kmh 30.05 in1017.6 mb 0.00 in0.0 mm 0.00 in0.0 mm 0.00 in0.0 mm
02:05 AM 66.4°F19.1°C 61.1°F16.2°C 83% 2.4 mph SW3.9 kmh SW 6.0 mph9.7 kmh 30.06 in1017.9 mb 0.00 in0.0 mm 0.00 in0.0 mm 0.00 in0.0 mm
02:10 AM 66.3°F19.1°C 60.6°F15.9°C 82% 2.1 mph SW3.4 kmh SW 8.0 mph12.9 kmh 30.06 in1017.9 mb 0.00 in0.0 mm 0.00 in0.0 mm 0.00 in0.0 mm
02:15 AM 66.3°F19.1°C 60.6°F15.9°C 82% 2.4 mph SW3.9 kmh SW 8.0 mph12.9 kmh 30.06 in1017.9 mb 0.00 in0.0 mm 0.00 in0.0 mm 0.00 in0.0 mm
02:20 AM 66.4°F19.1°C 60.7°F15.9°C 82% 2.7 mph SW4.3 kmh SW 7.0 mph11.3 kmh 30.06 in1017.9 mb 0.00 in0.0 mm 0.00 in0.0 mm 0.00 in0.0 mm
02:25 AM 66.4°F19.1°C 60.7°F15.9°C 82% 2.3 mph WSW3.7 kmh WSW 5.0 mph8.0 kmh 30.06 in1017.9 mb 0.00 in0.0 mm 0.00 in0.0 mm 0.00 in0.0 mm
02:30 AM 66.3°F19.1°C 60.6°F15.9°C 82% 1.5 mph WSW2.4 kmh WSW 4.0 mph6.4 kmh 30.06 in1017.9 mb 0.00 in0.0 mm 0.00 in0.0 mm 0.00 in0.0 mm
02:35 AM 66.3°F19.1°C 60.6°F15.9°C 82% 1.2 mph SW1.9 kmh SW 4.0 mph6.4 kmh 30.06 in1017.9 mb 0.00 in0.0 mm 0.00 in0.0 mm 0.00 in0.0 mm
02:40 AM 66.3°F19.1°C 60.6°F15.9°C 82% 1.1 mph SW1.8 kmh SW 4.0 mph6.4 kmh 30.06 in1017.9 mb 0.00 in0.0 mm 0.00 in0.0 mm 0.00 in0.0 mm
02:45 AM 66.3°F19.1°C 60.6°F15.9°C 82% 1.0 mph SW1.6 kmh SW 3.0 mph4.8 kmh 30.06 in1017.9 mb 0.00 in0.0 mm 0.00 in0.0 mm 0.00 in0.0 mm
02:50 AM 66.3°F19.1°C 60.6°F15.9°C 82% 0.7 mph SW1.1 kmh SW 3.0 mph4.8 kmh 30.06 in1017.9 mb 0.00 in0.0 mm 0.00 in0.0 mm 0.00 in0.0 mm
02:55 AM 66.2°F19.0°C 60.9°F16.1°C 83% 0.6 mph SW1.0 kmh SW 3.0 mph4.8 kmh 30.06 in1017.9 mb 0.00 in0.0 mm 0.00 in0.0 mm 0.00 in0.0 mm
03:00 AM 66.1°F18.9°C 60.4°F15.8°C 82% 0.7 mph SW1.1 kmh SW 3.0 mph4.8 kmh 30.06 in1017.9 mb 0.00 in0.0 mm 0.00 in0.0 mm 0.00 in0.0 mm
03:05 AM 66.0°F18.9°C 60.7°F15.9°C 83% 0.8 mph SW1.3 kmh SW 4.0 mph6.4 kmh 30.06 in1017.9 mb 0.00 in0.0 mm 0.00 in0.0 mm 0.00 in0.0 mm
03:10 AM 66.0°F18.9°C 60.7°F15.9°C 83% 1.0 mph SW1.6 kmh SW 4.0 mph6.4 kmh 30.06 in1017.9 mb 0.00 in0.0 mm 0.00 in0.0 mm 0.00 in0.0 mm
03:15 AM 65.9°F18.8°C 60.6°F15.9°C 83% 1.2 mph SW1.9 kmh SW 6.0 mph9.7 kmh 30.06 in1017.9 mb 0.00 in0.0 mm 0.00 in0.0 mm 0.00 in0.0 mm
03:20 AM 65.8°F18.8°C 60.5°F15.8°C 83% 2.1 mph SW3.4 kmh SW 6.0 mph9.7 kmh 30.05 in1017.6 mb 0.00 in0.0 mm 0.00 in0.0 mm 0.00 in0.0 mm
03:25 AM 65.7°F18.7°C 60.4°F15.8°C 83% 2.8 mph SW4.5 kmh SW 5.0 mph8.0 kmh 30.05 in1017.6 mb 0.00 in0.0 mm 0.00 in0.0 mm 0.00 in0.0 mm
03:30 AM 65.7°F18.7°C 60.4°F15.8°C 83% 2.8 mph SW4.5 kmh SW 7.0 mph11.3 kmh 30.05 in1017.6 mb 0.00 in0.0 mm 0.00 in0.0 mm 0.00 in0.0 mm
03:35 AM 65.7°F18.7°C 60.4°F15.8°C 83% 2.4 mph SW3.9 kmh SW 7.0 mph11.3 kmh 30.06 in1017.9 mb 0.00 in0.0 mm 0.00 in0.0 mm 0.00 in0.0 mm
03:40 AM 65.7°F18.7°C 60.4°F15.8°C 83% 2.0 mph SW3.2 kmh SW 4.0 mph6.4 kmh 30.06 in1017.9 mb 0.00 in0.0 mm 0.00 in0.0 mm 0.00 in0.0 mm
03:45 AM 65.8°F18.8°C 60.5°F15.8°C 83% 1.8 mph SW2.9 kmh SW 4.0 mph6.4 kmh 30.06 in1017.9 mb 0.00 in0.0 mm 0.00 in0.0 mm 0.00 in0.0 mm
03:50 AM 65.7°F18.7°C 60.4°F15.8°C 83% 1.3 mph W2.1 kmh W 3.0 mph4.8 kmh 30.06 in1017.9 mb 0.00 in0.0 mm 0.00 in0.0 mm 0.00 in0.0 mm
03:55 AM 65.7°F18.7°C 60.4°F15.8°C 83% 1.0 mph SW1.6 kmh SW 3.0 mph4.8 kmh 30.06 in1017.9 mb 0.00 in0.0 mm 0.00 in0.0 mm 0.00 in0.0 mm
04:00 AM 65.7°F18.7°C 60.4°F15.8°C 83% 1.1 mph SW1.8 kmh SW 6.0 mph9.7 kmh 30.06 in1017.9 mb 0.00 in0.0 mm 0.00 in0.0 mm 0.00 in0.0 mm
04:05 AM 65.6°F18.7°C 60.3°F15.7°C 83% 1.5 mph SW2.4 kmh SW 7.0 mph11.3 kmh 30.06 in1017.9 mb 0.00 in0.0 mm 0.00 in0.0 mm 0.00 in0.0 mm
04:10 AM 65.5°F18.6°C 60.2°F15.7°C 83% 2.3 mph SW3.7 kmh SW 8.0 mph12.9 kmh 30.06 in1017.9 mb 0.00 in0.0 mm 0.00 in0.0 mm 0.00 in0.0 mm
04:15 AM 65.5°F18.6°C 60.5°F15.8°C 84% 2.8 mph SW4.5 kmh SW 8.0 mph12.9 kmh 30.06 in1017.9 mb 0.00 in0.0 mm 0.00 in0.0 mm 0.00 in0.0 mm
04:20 AM 65.4°F18.6°C 60.4°F15.8°C 84% 3.0 mph SW4.8 kmh SW 5.0 mph8.0 kmh 30.07 in1018.3 mb 0.00 in0.0 mm 0.00 in0.0 mm 0.00 in0.0 mm
04:25 AM 65.3°F18.5°C 60.3°F15.7°C 84% 2.9 mph SW4.7 kmh SW 5.0 mph8.0 kmh 30.06 in1017.9 mb 0.00 in0.0 mm 0.00 in0.0 mm 0.00 in0.0 mm
04:30 AM 65.2°F18.4°C 60.2°F15.7°C 84% 2.7 mph SW4.3 kmh SW 5.0 mph8.0 kmh 30.07 in1018.3 mb 0.00 in0.0 mm 0.00 in0.0 mm 0.00 in0.0 mm
04:35 AM 65.2°F18.4°C 60.2°F15.7°C 84% 2.2 mph SW3.5 kmh SW 6.0 mph9.7 kmh 30.07 in1018.3 mb 0.00 in0.0 mm 0.00 in0.0 mm 0.00 in0.0 mm
04:40 AM 65.2°F18.4°C 60.2°F15.7°C 84% 2.3 mph SW3.7 kmh SW 8.0 mph12.9 kmh 30.07 in1018.3 mb 0.00 in0.0 mm 0.00 in0.0 mm 0.00 in0.0 mm
04:45 AM 65.2°F18.4°C 60.2°F15.7°C 84% 2.7 mph SW4.3 kmh SW 8.0 mph12.9 kmh 30.07 in1018.3 mb 0.00 in0.0 mm 0.00 in0.0 mm 0.00 in0.0 mm
04:50 AM 65.2°F18.4°C 60.2°F15.7°C 84% 3.0 mph SW4.8 kmh SW 7.0 mph11.3 kmh 30.07 in1018.3 mb 0.00 in0.0 mm 0.00 in0.0 mm 0.00 in0.0 mm
04:55 AM 65.2°F18.4°C 60.2°F15.7°C 84% 3.0 mph SW4.8 kmh SW 7.0 mph11.3 kmh 30.07 in1018.3 mb 0.00 in0.0 mm 0.00 in0.0 mm 0.00 in0.0 mm
05:00 AM 65.2°F18.4°C 60.2°F15.7°C 84% 2.8 mph SW4.5 kmh SW 6.0 mph9.7 kmh 30.07 in1018.3 mb 0.00 in0.0 mm 0.00 in0.0 mm 0.00 in0.0 mm
05:05 AM 65.2°F18.4°C 60.2°F15.7°C 84% 2.4 mph SW3.9 kmh SW 5.0 mph8.0 kmh 30.07 in1018.3 mb 0.00 in0.0 mm 0.00 in0.0 mm 0.00 in0.0 mm
05:10 AM 65.2°F18.4°C 60.2°F15.7°C 84% 2.0 mph SW3.2 kmh SW 5.0 mph8.0 kmh 30.07 in1018.3 mb 0.00 in0.0 mm 0.00 in0.0 mm 0.00 in0.0 mm
05:15 AM 65.2°F18.4°C 60.2°F15.7°C 84% 2.0 mph SW3.2 kmh SW 5.0 mph8.0 kmh 30.07 in1018.3 mb 0.00 in0.0 mm 0.00 in0.0 mm 0.00 in0.0 mm
05:20 AM 65.2°F18.4°C 60.2°F15.7°C 84% 2.0 mph SW3.2 kmh SW 5.0 mph8.0 kmh 30.07 in1018.3 mb 0.00 in0.0 mm 0.00 in0.0 mm 0.00 in0.0 mm
05:25 AM 65.1°F18.4°C 60.1°F15.6°C 84% 2.3 mph SW3.7 kmh SW 7.0 mph11.3 kmh 30.07 in1018.3 mb 0.00 in0.0 mm 0.00 in0.0 mm 0.00 in0.0 mm
05:30 AM 65.0°F18.3°C 60.0°F15.6°C 84% 2.7 mph SSW4.3 kmh SSW 7.0 mph11.3 kmh 30.07 in1018.3 mb 0.00 in0.0 mm 0.00 in0.0 mm 0.00 in0.0 mm
05:35 AM 65.0°F18.3°C 60.0°F15.6°C 84% 2.4 mph SW3.9 kmh SW 7.0 mph11.3 kmh 30.07 in1018.3 mb 0.00 in0.0 mm 0.00 in0.0 mm 0.00 in0.0 mm
05:40 AM 65.0°F18.3°C 60.0°F15.6°C 84% 2.0 mph SW3.2 kmh SW 7.0 mph11.3 kmh 30.07 in1018.3 mb 0.00 in0.0 mm 0.00 in0.0 mm 0.00 in0.0 mm
05:45 AM 65.1°F18.4°C 60.1°F15.6°C 84% 2.0 mph SW3.2 kmh SW 7.0 mph11.3 kmh 30.07 in1018.3 mb 0.00 in0.0 mm 0.00 in0.0 mm 0.00 in0.0 mm
05:50 AM 65.1°F18.4°C 60.1°F15.6°C 84% 2.3 mph SW3.7 kmh SW 7.0 mph11.3 kmh 30.07 in1018.3 mb 0.00 in0.0 mm 0.00 in0.0 mm 0.00 in0.0 mm
05:55 AM 65.1°F18.4°C 59.8°F15.4°C 83% 3.1 mph SSW5.0 kmh SSW 7.0 mph11.3 kmh 30.07 in1018.3 mb 0.00 in0.0 mm 0.00 in0.0 mm 0.00 in0.0 mm
06:00 AM 65.1°F18.4°C 60.1°F15.6°C 84% 3.7 mph SW6.0 kmh SW 7.0 mph11.3 kmh 30.07 in1018.3 mb 0.00 in0.0 mm 0.00 in0.0 mm 0.00 in0.0 mm
06:05 AM 65.3°F18.5°C 60.3°F15.7°C 84% 3.4 mph SW5.5 kmh SW 7.0 mph11.3 kmh 30.07 in1018.3 mb 0.00 in0.0 mm 0.00 in0.0 mm 0.00 in0.0 mm
06:10 AM 65.5°F18.6°C 60.2°F15.7°C 83% 2.2 mph SW3.5 kmh SW 6.0 mph9.7 kmh 30.07 in1018.3 mb 0.00 in0.0 mm 0.00 in0.0 mm 0.00 in0.0 mm
06:15 AM 65.7°F18.7°C 60.4°F15.8°C 83% 1.1 mph WSW1.8 kmh WSW 4.0 mph6.4 kmh 30.07 in1018.3 mb 0.00 in0.0 mm 0.00 in0.0 mm 0.00 in0.0 mm
06:20 AM 65.8°F18.8°C 60.2°F15.7°C 82% 0.4 mph W0.6 kmh W 3.0 mph4.8 kmh 30.07 in1018.3 mb 0.00 in0.0 mm 0.00 in0.0 mm 0.00 in0.0 mm
06:25 AM 65.7°F18.7°C 60.1°F15.6°C 82% 0.4 mph SW0.6 kmh SW 5.0 mph8.0 kmh 30.07 in1018.3 mb 0.00 in0.0 mm 0.00 in0.0 mm 0.00 in0.0 mm
06:30 AM 65.5°F18.6°C 60.2°F15.7°C 83% 1.3 mph SW2.1 kmh SW 7.0 mph11.3 kmh 30.07 in1018.3 mb 0.00 in0.0 mm 0.00 in0.0 mm 0.00 in0.0 mm
06:35 AM 65.5°F18.6°C 60.2°F15.7°C 83% 2.6 mph SW4.2 kmh SW 10.0 mph16.1 kmh 30.07 in1018.3 mb 0.00 in0.0 mm 0.00 in0.0 mm 0.00 in0.0 mm
06:40 AM 65.4°F18.6°C 60.1°F15.6°C 83% 3.5 mph SW5.6 kmh SW 10.0 mph16.1 kmh 30.07 in1018.3 mb 0.00 in0.0 mm 0.00 in0.0 mm 0.00 in0.0 mm
06:45 AM 65.6°F18.7°C 60.3°F15.7°C 83% 2.9 mph SW4.7 kmh SW 7.0 mph11.3 kmh 30.08 in1018.6 mb 0.00 in0.0 mm 0.00 in0.0 mm 0.00 in0.0 mm
06:50 AM 65.8°F18.8°C 60.5°F15.8°C 83% 1.2 mph SW1.9 kmh SW 4.0 mph6.4 kmh 30.08 in1018.6 mb 0.00 in0.0 mm 0.00 in0.0 mm 0.00 in0.0 mm
06:55 AM 65.9°F18.8°C 60.6°F15.9°C 83% 0.7 mph SW1.1 kmh SW 4.0 mph6.4 kmh 30.08 in1018.6 mb 0.00 in0.0 mm 0.00 in0.0 mm 0.00 in0.0 mm
07:00 AM 66.0°F18.9°C 60.3°F15.7°C 82% 1.3 mph SW2.1 kmh SW 4.0 mph6.4 kmh 30.08 in1018.6 mb 0.00 in0.0 mm 0.00 in0.0 mm 0.00 in0.0 mm
07:05 AM 66.0°F18.9°C 60.3°F15.7°C 82% 1.6 mph SW2.6 kmh SW 5.0 mph8.0 kmh 30.07 in1018.3 mb 0.00 in0.0 mm 0.00 in0.0 mm 0.00 in0.0 mm
07:10 AM 66.0°F18.9°C 60.3°F15.7°C 82% 1.8 mph SW2.9 kmh SW 5.0 mph8.0 kmh 30.08 in1018.6 mb 0.00 in0.0 mm 0.00 in0.0 mm 0.00 in0.0 mm
07:15 AM 66.1°F18.9°C 60.4°F15.8°C 82% 2.0 mph SW3.2 kmh SW 6.0 mph9.7 kmh 30.08 in1018.6 mb 0.00 in0.0 mm 0.00 in0.0 mm 0.00 in0.0 mm
07:20 AM 66.2°F19.0°C 60.5°F15.8°C 82% 2.5 mph SW4.0 kmh SW 7.0 mph11.3 kmh 30.08 in1018.6 mb 0.00 in0.0 mm 0.00 in0.0 mm 0.00 in0.0 mm
07:25 AM 66.4°F19.1°C 60.7°F15.9°C 82% 2.8 mph SW4.5 kmh SW 7.0 mph11.3 kmh 30.08 in1018.6 mb 0.00 in0.0 mm 0.00 in0.0 mm 0.00 in0.0 mm
07:30 AM 66.6°F19.2°C 60.6°F15.9°C 81% 2.4 mph SW3.9 kmh SW 7.0 mph11.3 kmh 30.08 in1018.6 mb 0.00 in0.0 mm 0.00 in0.0 mm 0.00 in0.0 mm
07:35 AM 66.4°F19.1°C 60.4°F15.8°C 81% 2.2 mph SW3.5 kmh SW 7.0 mph11.3 kmh 30.08 in1018.6 mb 0.00 in0.0 mm 0.00 in0.0 mm 0.00 in0.0 mm
07:40 AM 66.7°F19.3°C 60.3°F15.7°C 80% 2.6 mph SW4.2 kmh SW 6.0 mph9.7 kmh 30.08 in1018.6 mb 0.00 in0.0 mm 0.00 in0.0 mm 0.00 in0.0 mm
07:45 AM 67.2°F19.6°C 60.5°F15.8°C 79% 3.0 mph SW4.8 kmh SW 6.0 mph9.7 kmh 30.08 in1018.6 mb 0.00 in0.0 mm 0.00 in0.0 mm 0.00 in0.0 mm
07:50 AM 68.0°F20.0°C 60.5°F15.8°C 77% 3.0 mph SW4.8 kmh SW 6.0 mph9.7 kmh 30.08 in1018.6 mb 0.00 in0.0 mm 0.00 in0.0 mm 0.00 in0.0 mm
07:55 AM 68.7°F20.4°C 60.5°F15.8°C 75% 3.0 mph SW4.8 kmh SW 6.0 mph9.7 kmh 30.08 in1018.6 mb 0.00 in0.0 mm 0.00 in0.0 mm 0.00 in0.0 mm
08:00 AM 69.2°F20.7°C 60.2°F15.7°C 73% 3.0 mph SW4.8 kmh SW 6.0 mph9.7 kmh 30.09 in1019.0 mb 0.00 in0.0 mm 0.00 in0.0 mm 0.00 in0.0 mm
08:05 AM 69.2°F20.7°C 59.8°F15.4°C 72% 3.0 mph SW4.8 kmh SW 7.0 mph11.3 kmh 30.08 in1018.6 mb 0.00 in0.0 mm 0.00 in0.0 mm 0.00 in0.0 mm
08:10 AM 69.1°F20.6°C 59.7°F15.4°C 72% 3.0 mph SW4.8 kmh SW 7.0 mph11.3 kmh 30.09 in1019.0 mb 0.00 in0.0 mm 0.00 in0.0 mm 0.00 in0.0 mm
08:15 AM 69.6°F20.9°C 60.6°F15.9°C 73% 3.1 mph SW5.0 kmh SW 6.0 mph9.7 kmh 30.09 in1019.0 mb 0.00 in0.0 mm 0.00 in0.0 mm 0.00 in0.0 mm
08:20 AM 70.8°F21.6°C 60.1°F15.6°C 69% 2.8 mph WSW4.5 kmh WSW 5.0 mph8.0 kmh 30.08 in1018.6 mb 0.00 in0.0 mm 0.00 in0.0 mm 0.00 in0.0 mm
08:25 AM 70.9°F21.6°C 60.2°F15.7°C 69% 2.1 mph WSW3.4 kmh WSW 7.0 mph11.3 kmh 30.09 in1019.0 mb 0.00 in0.0 mm 0.00 in0.0 mm 0.00 in0.0 mm
08:30 AM 71.0°F21.7°C 59.9°F15.5°C 68% 1.9 mph WSW3.1 kmh WSW 7.0 mph11.3 kmh 30.08 in1018.6 mb 0.00 in0.0 mm 0.00 in0.0 mm 0.00 in0.0 mm
08:35 AM 71.3°F21.8°C 59.4°F15.2°C 66% 1.8 mph WSW2.9 kmh WSW 7.0 mph11.3 kmh 30.08 in1018.6 mb 0.00 in0.0 mm 0.00 in0.0 mm 0.00 in0.0 mm
08:40 AM 70.5°F21.4°C 59.0°F15.0°C 67% 2.0 mph SW3.2 kmh SW 7.0 mph11.3 kmh 30.09 in1019.0 mb 0.00 in0.0 mm 0.00 in0.0 mm 0.00 in0.0 mm
08:45 AM 70.3°F21.3°C 58.8°F14.9°C 67% 3.1 mph SW5.0 kmh SW 8.0 mph12.9 kmh 30.08 in1018.6 mb 0.00 in0.0 mm 0.00 in0.0 mm 0.00 in0.0 mm
08:50 AM 70.9°F21.6°C 59.0°F15.0°C 66% 3.6 mph WSW5.8 kmh WSW 8.0 mph12.9 kmh 30.09 in1019.0 mb 0.00 in0.0 mm 0.00 in0.0 mm 0.00 in0.0 mm
08:55 AM 70.9°F21.6°C 59.4°F15.2°C 67% 3.6 mph SW5.8 kmh SW 8.0 mph12.9 kmh 30.08 in1018.6 mb 0.00 in0.0 mm 0.00 in0.0 mm 0.00 in0.0 mm
09:00 AM 71.6°F22.0°C 58.8°F14.9°C 64% 3.5 mph WSW5.6 kmh WSW 8.0 mph12.9 kmh 30.08 in1018.6 mb 0.00 in0.0 mm 0.00 in0.0 mm 0.00 in0.0 mm
09:05 AM 71.6°F22.0°C 58.8°F14.9°C 64% 2.9 mph SW4.7 kmh SW 7.0 mph11.3 kmh 30.09 in1019.0 mb 0.00 in0.0 mm 0.00 in0.0 mm 0.00 in0.0 mm
09:10 AM 71.7°F22.1°C 59.3°F15.2°C 65% 2.3 mph SW3.7 kmh SW 6.0 mph9.7 kmh 30.08 in1018.6 mb 0.00 in0.0 mm 0.00 in0.0 mm 0.00 in0.0 mm
09:15 AM 71.6°F22.0°C 60.1°F15.6°C 67% 2.0 mph WSW3.2 kmh WSW 5.0 mph8.0 kmh 30.08 in1018.6 mb 0.00 in0.0 mm 0.00 in0.0 mm 0.00 in0.0 mm
09:20 AM 71.9°F22.2°C 59.9°F15.5°C 66% 2.0 mph WSW3.2 kmh WSW 6.0 mph9.7 kmh 30.09 in1019.0 mb 0.00 in0.0 mm 0.00 in0.0 mm 0.00 in0.0 mm
09:25 AM 72.0°F22.2°C 59.6°F15.3°C 65% 1.9 mph WSW3.1 kmh WSW 6.0 mph9.7 kmh 30.09 in1019.0 mb 0.00 in0.0 mm 0.00 in0.0 mm 0.00 in0.0 mm
09:30 AM 71.7°F22.1°C 59.3°F15.2°C 65% 1.9 mph WSW3.1 kmh WSW 8.0 mph12.9 kmh 30.09 in1019.0 mb 0.00 in0.0 mm 0.00 in0.0 mm 0.00 in0.0 mm
09:35 AM 71.8°F22.1°C 59.4°F15.2°C 65% 2.4 mph WSW3.9 kmh WSW 8.0 mph12.9 kmh 30.09 in1019.0 mb 0.00 in0.0 mm 0.00 in0.0 mm 0.00 in0.0 mm
09:40 AM 72.0°F22.2°C 60.0°F15.6°C 66% 2.9 mph WSW4.7 kmh WSW 8.0 mph12.9 kmh 30.09 in1019.0 mb 0.00 in0.0 mm 0.00 in0.0 mm 0.00 in0.0 mm
09:45 AM 72.9°F22.7°C 60.0°F15.6°C 64% 2.6 mph WSW4.2 kmh WSW 6.0 mph9.7 kmh 30.09 in1019.0 mb 0.00 in0.0 mm 0.00 in0.0 mm 0.00 in0.0 mm
09:50 AM 72.5°F22.5°C 59.2°F15.1°C 63% 2.2 mph SW3.5 kmh SW 7.0 mph11.3 kmh 30.09 in1019.0 mb 0.00 in0.0 mm 0.00 in0.0 mm 0.00 in0.0 mm
09:55 AM 72.4°F22.4°C 60.0°F15.6°C 65% 2.3 mph SW3.7 kmh SW 7.0 mph11.3 kmh 30.09 in1019.0 mb 0.00 in0.0 mm 0.00 in0.0 mm 0.00 in0.0 mm
10:00 AM 72.4°F22.4°C 59.5°F15.3°C 64% 2.4 mph WSW3.9 kmh WSW 6.0 mph9.7 kmh 30.09 in1019.0 mb 0.00 in0.0 mm 0.00 in0.0 mm 0.00 in0.0 mm
10:05 AM 72.7°F22.6°C 59.4°F15.2°C 63% 2.6 mph WSW4.2 kmh WSW 6.0 mph9.7 kmh 30.09 in1019.0 mb 0.00 in0.0 mm 0.00 in0.0 mm 0.00 in0.0 mm
10:10 AM 73.0°F22.8°C 59.7°F15.4°C 63% 3.0 mph WSW4.8 kmh WSW 6.0 mph9.7 kmh 30.09 in1019.0 mb 0.00 in0.0 mm 0.00 in0.0 mm 0.00 in0.0 mm
10:15 AM 73.3°F22.9°C 59.9°F15.5°C 63% 2.6 mph WSW4.2 kmh WSW 6.0 mph9.7 kmh 30.09 in1019.0 mb 0.00 in0.0 mm 0.00 in0.0 mm 0.00 in0.0 mm
10:20 AM 73.7°F23.2°C 60.8°F16.0°C 64% 2.1 mph WSW3.4 kmh WSW 7.0 mph11.3 kmh 30.09 in1019.0 mb 0.00 in0.0 mm 0.00 in0.0 mm 0.00 in0.0 mm
10:25 AM 73.5°F23.1°C 59.7°F15.4°C 62% 2.3 mph WSW3.7 kmh WSW 9.0 mph14.5 kmh 30.09 in1019.0 mb 0.00 in0.0 mm 0.00 in0.0 mm 0.00 in0.0 mm
10:30 AM 73.2°F22.9°C 59.4°F15.2°C 62% 3.1 mph WSW5.0 kmh WSW 9.0 mph14.5 kmh 30.09 in1019.0 mb 0.00 in0.0 mm 0.00 in0.0 mm 0.00 in0.0 mm
10:35 AM 73.2°F22.9°C 59.4°F15.2°C 62% 4.0 mph WSW6.4 kmh WSW 10.0 mph16.1 kmh 30.09 in1019.0 mb 0.00 in0.0 mm 0.00 in0.0 mm 0.00 in0.0 mm
10:40 AM 73.8°F23.2°C 60.0°F15.6°C 62% 4.4 mph SW7.1 kmh SW 10.0 mph16.1 kmh 30.09 in1019.0 mb 0.00 in0.0 mm 0.00 in0.0 mm 0.00 in0.0 mm
10:45 AM 74.4°F23.6°C 59.6°F15.3°C 60% 3.8 mph SW6.1 kmh SW 6.0 mph9.7 kmh 30.09 in1019.0 mb 0.00 in0.0 mm 0.00 in0.0 mm 0.00 in0.0 mm
10:50 AM 74.6°F23.7°C 59.8°F15.4°C 60% 2.2 mph WSW3.5 kmh WSW 4.0 mph6.4 kmh 30.09 in1019.0 mb 0.00 in0.0 mm 0.00 in0.0 mm 0.00 in0.0 mm
10:55 AM 74.2°F23.4°C 60.3°F15.7°C 62% 1.5 mph WSW2.4 kmh WSW 8.0 mph12.9 kmh 30.09 in1019.0 mb 0.00 in0.0 mm 0.00 in0.0 mm 0.00 in0.0 mm
11:00 AM 75.3°F24.1°C 60.5°F15.8°C 60% 1.8 mph WSW2.9 kmh WSW 8.0 mph12.9 kmh 30.08 in1018.6 mb 0.00 in0.0 mm 0.00 in0.0 mm 0.00 in0.0 mm
11:05 AM 76.0°F24.4°C 60.6°F15.9°C 59% 1.8 mph SW2.9 kmh SW 4.0 mph6.4 kmh 30.08 in1018.6 mb 0.00 in0.0 mm 0.00 in0.0 mm 0.00 in0.0 mm
11:10 AM 75.0°F23.9°C 60.2°F15.7°C 60% 1.9 mph SW3.1 kmh SW 9.0 mph14.5 kmh 30.08 in1018.6 mb 0.00 in0.0 mm 0.00 in0.0 mm 0.00 in0.0 mm
11:15 AM 74.8°F23.8°C 60.0°F15.6°C 60% 3.1 mph WSW5.0 kmh WSW 9.0 mph14.5 kmh 30.08 in1018.6 mb 0.00 in0.0 mm 0.00 in0.0 mm 0.00 in0.0 mm
11:20 AM 75.7°F24.3°C 59.9°F15.5°C 58% 4.2 mph SW6.8 kmh SW 8.0 mph12.9 kmh 30.08 in1018.6 mb 0.00 in0.0 mm 0.00 in0.0 mm 0.00 in0.0 mm
11:25 AM 76.8°F24.9°C 59.4°F15.2°C 55% 3.7 mph SW6.0 kmh SW 8.0 mph12.9 kmh 30.08 in1018.6 mb 0.00 in0.0 mm 0.00 in0.0 mm 0.00 in0.0 mm
11:30 AM 76.9°F24.9°C 60.0°F15.6°C 56% 2.9 mph SW4.7 kmh SW 7.0 mph11.3 kmh 30.07 in1018.3 mb 0.00 in0.0 mm 0.00 in0.0 mm 0.00 in0.0 mm
11:35 AM 77.3°F25.2°C 59.9°F15.5°C 55% 2.4 mph WSW3.9 kmh WSW 9.0 mph14.5 kmh 30.07 in1018.3 mb 0.00 in0.0 mm 0.00 in0.0 mm 0.00 in0.0 mm
11:40 AM 77.2°F25.1°C 58.7°F14.8°C 53% 2.8 mph SW4.5 kmh SW 13.0 mph20.9 kmh 30.07 in1018.3 mb 0.00 in0.0 mm 0.00 in0.0 mm 0.00 in0.0 mm
11:45 AM 77.2°F25.1°C 58.2°F14.6°C 52% 4.4 mph SW7.1 kmh SW 13.0 mph20.9 kmh 30.07 in1018.3 mb 0.00 in0.0 mm 0.00 in0.0 mm 0.00 in0.0 mm
11:50 AM 77.4°F25.2°C 57.9°F14.4°C 51% 4.8 mph WSW7.7 kmh WSW 12.0 mph19.3 kmh 30.07 in1018.3 mb 0.00 in0.0 mm 0.00 in0.0 mm 0.00 in0.0 mm
11:55 AM 76.7°F24.8°C 58.3°F14.6°C 53% 4.3 mph WSW6.9 kmh WSW 12.0 mph19.3 kmh 30.07 in1018.3 mb 0.00 in0.0 mm 0.00 in0.0 mm 0.00 in0.0 mm
12:00 PM 76.8°F24.9°C 58.4°F14.7°C 53% 5.2 mph WSW8.4 kmh WSW 11.0 mph17.7 kmh 30.07 in1018.3 mb 0.00 in0.0 mm 0.00 in0.0 mm 0.00 in0.0 mm
12:05 PM 77.3°F25.2°C 59.4°F15.2°C 54% 6.0 mph SW9.7 kmh SW 12.0 mph19.3 kmh 30.07 in1018.3 mb 0.00 in0.0 mm 0.00 in0.0 mm 0.00 in0.0 mm
12:10 PM 77.8°F25.4°C 59.3°F15.2°C 53% 5.6 mph SW9.0 kmh SW 12.0 mph19.3 kmh 30.07 in1018.3 mb 0.00 in0.0 mm 0.00 in0.0 mm 0.00 in0.0 mm
12:15 PM 77.1°F25.1°C 59.2°F15.1°C 54% 5.9 mph WSW9.5 kmh WSW 12.0 mph19.3 kmh 30.07 in1018.3 mb 0.00 in0.0 mm 0.00 in0.0 mm 0.00 in0.0 mm
12:20 PM 77.7°F25.4°C 58.1°F14.5°C 51% 6.7 mph WSW10.8 kmh WSW 12.0 mph19.3 kmh 30.07 in1018.3 mb 0.00 in0.0 mm 0.00 in0.0 mm 0.00 in0.0 mm
12:25 PM 78.5°F25.8°C 59.4°F15.2°C 52% 6.3 mph SW10.1 kmh SW 11.0 mph17.7 kmh 30.07 in1018.3 mb 0.00 in0.0 mm 0.00 in0.0 mm 0.00 in0.0 mm
12:30 PM 78.7°F25.9°C 59.6°F15.3°C 52% 5.7 mph SW9.2 kmh SW 15.0 mph24.1 kmh 30.07 in1018.3 mb 0.00 in0.0 mm 0.00 in0.0 mm 0.00 in0.0 mm
12:35 PM 79.2°F26.2°C 60.1°F15.6°C 52% 6.1 mph SW9.8 kmh SW 15.0 mph24.1 kmh 30.06 in1017.9 mb 0.00 in0.0 mm 0.00 in0.0 mm 0.00 in0.0 mm
12:40 PM 79.4°F26.3°C 60.8°F16.0°C 53% 6.2 mph SW10.0 kmh SW 12.0 mph19.3 kmh 30.06 in1017.9 mb 0.00 in0.0 mm 0.00 in0.0 mm 0.00 in0.0 mm
12:45 PM 79.0°F26.1°C 60.4°F15.8°C 53% 6.4 mph WSW10.3 kmh WSW 15.0 mph24.1 kmh 30.06 in1017.9 mb 0.00 in0.0 mm 0.00 in0.0 mm 0.00 in0.0 mm
12:50 PM 78.8°F26.0°C 59.7°F15.4°C 52% 8.2 mph SW13.2 kmh SW 15.0 mph24.1 kmh 30.06 in1017.9 mb 0.00 in0.0 mm 0.00 in0.0 mm 0.00 in0.0 mm
12:55 PM 78.8°F26.0°C 59.1°F15.1°C 51% 9.6 mph SW15.4 kmh SW 15.0 mph24.1 kmh 30.06 in1017.9 mb 0.00 in0.0 mm 0.00 in0.0 mm 0.00 in0.0 mm
01:00 PM 79.1°F26.2°C 59.4°F15.2°C 51% 8.7 mph SW14.0 kmh SW 13.0 mph20.9 kmh 30.06 in1017.9 mb 0.00 in0.0 mm 0.00 in0.0 mm 0.00 in0.0 mm
01:05 PM 79.6°F26.4°C 60.4°F15.8°C 52% 6.9 mph SW11.1 kmh SW 13.0 mph20.9 kmh 30.06 in1017.9 mb 0.00 in0.0 mm 0.00 in0.0 mm 0.00 in0.0 mm
01:10 PM 78.4°F25.8°C 59.9°F15.5°C 53% 6.1 mph SW9.8 kmh SW 15.0 mph24.1 kmh 30.06 in1017.9 mb 0.00 in0.0 mm 0.00 in0.0 mm 0.00 in0.0 mm
01:15 PM 78.5°F25.8°C 59.9°F15.5°C 53% 6.8 mph SW10.9 kmh SW 15.0 mph24.1 kmh 30.06 in1017.9 mb 0.00 in0.0 mm 0.00 in0.0 mm 0.00 in0.0 mm
01:20 PM 78.4°F25.8°C 59.3°F15.2°C 52% 7.8 mph WSW12.6 kmh WSW 15.0 mph24.1 kmh 30.06 in1017.9 mb 0.00 in0.0 mm 0.00 in0.0 mm 0.00 in0.0 mm
01:25 PM 79.2°F26.2°C 59.5°F15.3°C 51% 7.7 mph WSW12.4 kmh WSW 12.0 mph19.3 kmh 30.06 in1017.9 mb 0.00 in0.0 mm 0.00 in0.0 mm 0.00 in0.0 mm
01:30 PM 78.9°F26.1°C 59.8°F15.4°C 52% 6.6 mph WSW10.6 kmh WSW 14.0 mph22.5 kmh 30.06 in1017.9 mb 0.00 in0.0 mm 0.00 in0.0 mm 0.00 in0.0 mm
01:35 PM 79.8°F26.6°C 60.1°F15.6°C 51% 6.0 mph WSW9.7 kmh WSW 14.0 mph22.5 kmh 30.06 in1017.9 mb 0.00 in0.0 mm 0.00 in0.0 mm 0.00 in0.0 mm
01:40 PM 80.4°F26.9°C 60.1°F15.6°C 50% 6.0 mph SW9.7 kmh SW 13.0 mph20.9 kmh 30.06 in1017.9 mb 0.00 in0.0 mm 0.00 in0.0 mm 0.00 in0.0 mm
01:45 PM 80.3°F26.8°C 60.0°F15.6°C 50% 5.9 mph SW9.5 kmh SW 14.0 mph22.5 kmh 30.05 in1017.6 mb 0.00 in0.0 mm 0.00 in0.0 mm 0.00 in0.0 mm
01:50 PM 80.5°F26.9°C 60.1°F15.6°C 50% 6.2 mph SW10.0 kmh SW 14.0 mph22.5 kmh 30.05 in1017.6 mb 0.00 in0.0 mm 0.00 in0.0 mm 0.00 in0.0 mm
01:55 PM 80.2°F26.8°C 58.7°F14.8°C 48% 6.3 mph SW10.1 kmh SW 14.0 mph22.5 kmh 30.05 in1017.6 mb 0.00 in0.0 mm 0.00 in0.0 mm 0.00 in0.0 mm
02:00 PM 78.7°F25.9°C 59.6°F15.3°C 52% 6.6 mph WSW10.6 kmh WSW 17.0 mph27.4 kmh 30.05 in1017.6 mb 0.00 in0.0 mm 0.00 in0.0 mm 0.00 in0.0 mm
02:05 PM 79.1°F26.2°C 59.4°F15.2°C 51% 7.9 mph WSW12.7 kmh WSW 17.0 mph27.4 kmh 30.05 in1017.6 mb 0.00 in0.0 mm 0.00 in0.0 mm 0.00 in0.0 mm
02:10 PM 79.1°F26.2°C 59.4°F15.2°C 51% 8.0 mph SW12.9 kmh SW 15.0 mph24.1 kmh 30.05 in1017.6 mb 0.00 in0.0 mm 0.00 in0.0 mm 0.00 in0.0 mm
02:15 PM 79.4°F26.3°C 59.7°F15.4°C 51% 7.2 mph SW11.6 kmh SW 15.0 mph24.1 kmh 30.05 in1017.6 mb 0.00 in0.0 mm 0.00 in0.0 mm 0.00 in0.0 mm
02:20 PM 80.1°F26.7°C 59.8°F15.4°C 50% 6.5 mph WSW10.5 kmh WSW 13.0 mph20.9 kmh 30.05 in1017.6 mb 0.00 in0.0 mm 0.00 in0.0 mm 0.00 in0.0 mm
02:25 PM 80.2°F26.8°C 59.9°F15.5°C 50% 5.7 mph SW9.2 kmh SW 13.0 mph20.9 kmh 30.05 in1017.6 mb 0.00 in0.0 mm 0.00 in0.0 mm 0.00 in0.0 mm
02:30 PM 80.4°F26.9°C 59.5°F15.3°C 49% 5.8 mph SW9.3 kmh SW 14.0 mph22.5 kmh 30.05 in1017.6 mb 0.00 in0.0 mm 0.00 in0.0 mm 0.00 in0.0 mm
02:35 PM 80.8°F27.1°C 59.9°F15.5°C 49% 6.6 mph SW10.6 kmh SW 14.0 mph22.5 kmh 30.05 in1017.6 mb 0.00 in0.0 mm 0.00 in0.0 mm 0.00 in0.0 mm
02:40 PM 80.2°F26.8°C 59.3°F15.2°C 49% 6.8 mph SW10.9 kmh SW 15.0 mph24.1 kmh 30.05 in1017.6 mb 0.00 in0.0 mm 0.00 in0.0 mm 0.00 in0.0 mm
02:45 PM 80.0°F26.7°C 59.7°F15.4°C 50% 6.5 mph SW10.5 kmh SW 15.0 mph24.1 kmh 30.05 in1017.6 mb 0.00 in0.0 mm 0.00 in0.0 mm 0.00 in0.0 mm
02:50 PM 79.6°F26.4°C 59.9°F15.5°C 51% 6.2 mph SW10.0 kmh SW 16.0 mph25.7 kmh 30.05 in1017.6 mb 0.00 in0.0 mm 0.00 in0.0 mm 0.00 in0.0 mm
02:55 PM 79.2°F26.2°C 60.1°F15.6°C 52% 6.2 mph WSW10.0 kmh WSW 16.0 mph25.7 kmh 30.05 in1017.6 mb 0.00 in0.0 mm 0.00 in0.0 mm 0.00 in0.0 mm
03:00 PM 78.7°F25.9°C 60.1°F15.6°C 53% 6.4 mph WSW10.3 kmh WSW 13.0 mph20.9 kmh 30.05 in1017.6 mb 0.00 in0.0 mm 0.00 in0.0 mm 0.00 in0.0 mm
03:05 PM 78.4°F25.8°C 59.9°F15.5°C 53% 6.7 mph WSW10.8 kmh WSW 18.0 mph29.0 kmh 30.05 in1017.6 mb 0.00 in0.0 mm 0.00 in0.0 mm 0.00 in0.0 mm
03:10 PM 77.9°F25.5°C 59.9°F15.5°C 54% 7.5 mph SW12.1 kmh SW 18.0 mph29.0 kmh 30.05 in1017.6 mb 0.00 in0.0 mm 0.00 in0.0 mm 0.00 in0.0 mm
03:15 PM 77.5°F25.3°C 60.1°F15.6°C 55% 8.1 mph SW13.0 kmh SW 17.0 mph27.4 kmh 30.05 in1017.6 mb 0.00 in0.0 mm 0.00 in0.0 mm 0.00 in0.0 mm
03:20 PM 77.1°F25.1°C 60.2°F15.7°C 56% 9.1 mph WSW14.6 kmh WSW 17.0 mph27.4 kmh 30.05 in1017.6 mb 0.00 in0.0 mm 0.00 in0.0 mm 0.00 in0.0 mm
03:25 PM 77.3°F25.2°C 60.4°F15.8°C 56% 9.9 mph WSW15.9 kmh WSW 16.0 mph25.7 kmh 30.05 in1017.6 mb 0.00 in0.0 mm 0.00 in0.0 mm 0.00 in0.0 mm
03:30 PM 77.3°F25.2°C 60.4°F15.8°C 56% 9.2 mph SW14.8 kmh SW 16.0 mph25.7 kmh 30.05 in1017.6 mb 0.00 in0.0 mm 0.00 in0.0 mm 0.00 in0.0 mm
03:35 PM 77.3°F25.2°C 60.9°F16.1°C 57% 8.0 mph WSW12.9 kmh WSW 14.0 mph22.5 kmh 30.05 in1017.6 mb 0.00 in0.0 mm 0.00 in0.0 mm 0.00 in0.0 mm
03:40 PM 77.5°F25.3°C 60.6°F15.9°C 56% 7.5 mph WSW12.1 kmh WSW 17.0 mph27.4 kmh 30.05 in1017.6 mb 0.00 in0.0 mm 0.00 in0.0 mm 0.00 in0.0 mm
03:45 PM 77.6°F25.3°C 60.7°F15.9°C 56% 8.3 mph WSW13.4 kmh WSW 20.0 mph32.2 kmh 30.05 in1017.6 mb 0.00 in0.0 mm 0.00 in0.0 mm 0.00 in0.0 mm
03:50 PM 77.9°F25.5°C 60.9°F16.1°C 56% 10.0 mph SW16.1 kmh SW 20.0 mph32.2 kmh 30.05 in1017.6 mb 0.00 in0.0 mm 0.00 in0.0 mm 0.00 in0.0 mm
03:55 PM 78.7°F25.9°C 61.2°F16.2°C 55% 10.2 mph WSW16.4 kmh WSW 18.0 mph29.0 kmh 30.05 in1017.6 mb 0.00 in0.0 mm 0.00 in0.0 mm 0.00 in0.0 mm
04:00 PM 78.7°F25.9°C 61.2°F16.2°C 55% 8.2 mph WSW13.2 kmh WSW 18.0 mph29.0 kmh 30.05 in1017.6 mb 0.00 in0.0 mm 0.00 in0.0 mm 0.00 in0.0 mm
04:05 PM 78.8°F26.0°C 60.7°F15.9°C 54% 6.9 mph SW11.1 kmh SW 18.0 mph29.0 kmh 30.05 in1017.6 mb 0.00 in0.0 mm 0.00 in0.0 mm 0.00 in0.0 mm
04:10 PM 78.2°F25.7°C 60.2°F15.7°C 54% 7.9 mph SW12.7 kmh SW 17.0 mph27.4 kmh 30.05 in1017.6 mb 0.00 in0.0 mm 0.00 in0.0 mm 0.00 in0.0 mm
04:15 PM 77.5°F25.3°C 60.6°F15.9°C 56% 9.5 mph WSW15.3 kmh WSW 19.0 mph30.6 kmh 30.05 in1017.6 mb 0.00 in0.0 mm 0.00 in0.0 mm 0.00 in0.0 mm
04:20 PM 77.6°F25.3°C 60.2°F15.7°C 55% 10.1 mph WSW16.3 kmh WSW 19.0 mph30.6 kmh 30.05 in1017.6 mb 0.00 in0.0 mm 0.00 in0.0 mm 0.00 in0.0 mm
04:25 PM 77.9°F25.5°C 60.9°F16.1°C 56% 9.2 mph WSW14.8 kmh WSW 14.0 mph22.5 kmh 30.05 in1017.6 mb 0.00 in0.0 mm 0.00 in0.0 mm 0.00 in0.0 mm
04:30 PM 78.1°F25.6°C 60.6°F15.9°C 55% 7.7 mph WSW12.4 kmh WSW 14.0 mph22.5 kmh 30.05 in1017.6 mb 0.00 in0.0 mm 0.00 in0.0 mm 0.00 in0.0 mm
04:35 PM 78.4°F25.8°C 60.4°F15.8°C 54% 6.6 mph SW10.6 kmh SW 17.0 mph27.4 kmh 30.05 in1017.6 mb 0.00 in0.0 mm 0.00 in0.0 mm 0.00 in0.0 mm
04:40 PM 78.6°F25.9°C 61.1°F16.2°C 55% 5.8 mph WSW9.3 kmh WSW 17.0 mph27.4 kmh 30.05 in1017.6 mb 0.00 in0.0 mm 0.00 in0.0 mm 0.00 in0.0 mm
04:45 PM 78.5°F25.8°C 61.0°F16.1°C 55% 5.6 mph WSW9.0 kmh WSW 14.0 mph22.5 kmh 30.05 in1017.6 mb 0.00 in0.0 mm 0.00 in0.0 mm 0.00 in0.0 mm
04:50 PM 78.5°F25.8°C 61.0°F16.1°C 55% 5.8 mph WSW9.3 kmh WSW 14.0 mph22.5 kmh 30.05 in1017.6 mb 0.00 in0.0 mm 0.00 in0.0 mm 0.00 in0.0 mm
04:55 PM 78.3°F25.7°C 60.8°F16.0°C 55% 6.0 mph WSW9.7 kmh WSW 15.0 mph24.1 kmh 30.04 in1017.3 mb 0.00 in0.0 mm 0.00 in0.0 mm 0.00 in0.0 mm
05:00 PM 78.2°F25.7°C 60.7°F15.9°C 55% 6.1 mph WSW9.8 kmh WSW 15.0 mph24.1 kmh 30.04 in1017.3 mb 0.00 in0.0 mm 0.00 in0.0 mm 0.00 in0.0 mm
05:05 PM 78.3°F25.7°C 60.3°F15.7°C 54% 5.9 mph WSW9.5 kmh WSW 13.0 mph20.9 kmh 30.04 in1017.3 mb 0.00 in0.0 mm 0.00 in0.0 mm 0.00 in0.0 mm
05:10 PM 77.7°F25.4°C 60.2°F15.7°C 55% 5.3 mph SW8.5 kmh SW 16.0 mph25.7 kmh 30.04 in1017.3 mb 0.00 in0.0 mm 0.00 in0.0 mm 0.00 in0.0 mm
05:15 PM 77.7°F25.4°C 60.8°F16.0°C 56% 5.6 mph WSW9.0 kmh WSW 16.0 mph25.7 kmh 30.04 in1017.3 mb 0.00 in0.0 mm 0.00 in0.0 mm 0.00 in0.0 mm
05:20 PM 77.6°F25.3°C 60.7°F15.9°C 56% 6.3 mph WSW10.1 kmh WSW 15.0 mph24.1 kmh 30.04 in1017.3 mb 0.00 in0.0 mm 0.00 in0.0 mm 0.00 in0.0 mm
05:25 PM 77.1°F25.1°C 60.2°F15.7°C 56% 6.1 mph WSW9.8 kmh WSW 17.0 mph27.4 kmh 30.04 in1017.3 mb 0.00 in0.0 mm 0.00 in0.0 mm 0.00 in0.0 mm
05:30 PM 76.3°F24.6°C 59.9°F15.5°C 57% 6.9 mph WSW11.1 kmh WSW 17.0 mph27.4 kmh 30.04 in1017.3 mb 0.00 in0.0 mm 0.00 in0.0 mm 0.00 in0.0 mm
05:35 PM 76.6°F24.8°C 60.7°F15.9°C 58% 8.7 mph WSW14.0 kmh WSW 17.0 mph27.4 kmh 30.04 in1017.3 mb 0.00 in0.0 mm 0.00 in0.0 mm 0.00 in0.0 mm
05:40 PM 76.6°F24.8°C 60.7°F15.9°C 58% 8.1 mph WSW13.0 kmh WSW 15.0 mph24.1 kmh 30.04 in1017.3 mb 0.00 in0.0 mm 0.00 in0.0 mm 0.00 in0.0 mm
05:45 PM 76.3°F24.6°C 60.4°F15.8°C 58% 6.2 mph WSW10.0 kmh WSW 15.0 mph24.1 kmh 30.04 in1017.3 mb 0.00 in0.0 mm 0.00 in0.0 mm 0.00 in0.0 mm
05:50 PM 76.3°F24.6°C 60.4°F15.8°C 58% 5.9 mph WSW9.5 kmh WSW 15.0 mph24.1 kmh 30.04 in1017.3 mb 0.00 in0.0 mm 0.00 in0.0 mm 0.00 in0.0 mm
05:55 PM 76.6°F24.8°C 60.2°F15.7°C 57% 6.0 mph WSW9.7 kmh WSW 12.0 mph19.3 kmh 30.04 in1017.3 mb 0.00 in0.0 mm 0.00 in0.0 mm 0.00 in0.0 mm
06:00 PM 76.4°F24.7°C 60.5°F15.8°C 58% 5.5 mph WSW8.9 kmh WSW 11.0 mph17.7 kmh 30.04 in1017.3 mb 0.00 in0.0 mm 0.00 in0.0 mm 0.00 in0.0 mm
06:05 PM 76.1°F24.5°C 60.2°F15.7°C 58% 5.0 mph WSW8.0 kmh WSW 11.0 mph17.7 kmh 30.04 in1017.3 mb 0.00 in0.0 mm 0.00 in0.0 mm 0.00 in0.0 mm
06:10 PM 75.9°F24.4°C 60.5°F15.8°C 59% 5.0 mph WSW8.0 kmh WSW 12.0 mph19.3 kmh 30.04 in1017.3 mb 0.00 in0.0 mm 0.00 in0.0 mm 0.00 in0.0 mm
06:15 PM 75.4°F24.1°C 60.1°F15.6°C 59% 5.0 mph WSW8.0 kmh WSW 13.0 mph20.9 kmh 30.04 in1017.3 mb 0.00 in0.0 mm 0.00 in0.0 mm 0.00 in0.0 mm
06:20 PM 75.1°F23.9°C 60.7°F15.9°C 61% 5.3 mph WSW8.5 kmh WSW 13.0 mph20.9 kmh 30.04 in1017.3 mb 0.00 in0.0 mm 0.00 in0.0 mm 0.00 in0.0 mm
06:25 PM 74.9°F23.8°C 60.5°F15.8°C 61% 5.6 mph WSW9.0 kmh WSW 12.0 mph19.3 kmh 30.04 in1017.3 mb 0.00 in0.0 mm 0.00 in0.0 mm 0.00 in0.0 mm
06:30 PM 74.8°F23.8°C 60.0°F15.6°C 60% 5.4 mph WSW8.7 kmh WSW 12.0 mph19.3 kmh 30.04 in1017.3 mb 0.00 in0.0 mm 0.00 in0.0 mm 0.00 in0.0 mm
06:35 PM 74.4°F23.6°C 60.1°F15.6°C 61% 5.0 mph WSW8.0 kmh WSW 11.0 mph17.7 kmh 30.04 in1017.3 mb 0.00 in0.0 mm 0.00 in0.0 mm 0.00 in0.0 mm
06:40 PM 74.2°F23.4°C 60.3°F15.7°C 62% 4.9 mph WSW7.9 kmh WSW 9.0 mph14.5 kmh 30.04 in1017.3 mb 0.00 in0.0 mm 0.00 in0.0 mm 0.00 in0.0 mm
06:45 PM 74.1°F23.4°C 59.8°F15.4°C 61% 4.6 mph WSW7.4 kmh WSW 9.0 mph14.5 kmh 30.04 in1017.3 mb 0.00 in0.0 mm 0.00 in0.0 mm 0.00 in0.0 mm
06:50 PM 73.9°F23.3°C 60.1°F15.6°C 62% 4.1 mph WSW6.6 kmh WSW 9.0 mph14.5 kmh 30.04 in1017.3 mb 0.00 in0.0 mm 0.00 in0.0 mm 0.00 in0.0 mm
06:55 PM 73.7°F23.2°C 60.3°F15.7°C 63% 4.0 mph WSW6.4 kmh WSW 9.0 mph14.5 kmh 30.04 in1017.3 mb 0.00 in0.0 mm 0.00 in0.0 mm 0.00 in0.0 mm
07:00 PM 73.5°F23.1°C 60.1°F15.6°C 63% 4.0 mph WSW6.4 kmh WSW 9.0 mph14.5 kmh 30.04 in1017.3 mb 0.00 in0.0 mm 0.00 in0.0 mm 0.00 in0.0 mm
07:05 PM 73.3°F22.9°C 59.9°F15.5°C 63% 4.0 mph WSW6.4 kmh WSW 9.0 mph14.5 kmh 30.04 in1017.3 mb 0.00 in0.0 mm 0.00 in0.0 mm 0.00 in0.0 mm
07:10 PM 73.1°F22.8°C 59.8°F15.4°C 63% 3.8 mph WSW6.1 kmh WSW 8.0 mph12.9 kmh 30.04 in1017.3 mb 0.00 in0.0 mm 0.00 in0.0 mm 0.00 in0.0 mm
07:15 PM 72.8°F22.7°C 59.9°F15.5°C 64% 3.3 mph WSW5.3 kmh WSW 9.0 mph14.5 kmh 30.04 in1017.3 mb 0.00 in0.0 mm 0.00 in0.0 mm 0.00 in0.0 mm
07:20 PM 72.4°F22.4°C 60.0°F15.6°C 65% 3.4 mph WSW5.5 kmh WSW 9.0 mph14.5 kmh 30.04 in1017.3 mb 0.00 in0.0 mm 0.00 in0.0 mm 0.00 in0.0 mm
07:25 PM 72.3°F22.4°C 59.9°F15.5°C 65% 3.9 mph WSW6.3 kmh WSW 8.0 mph12.9 kmh 30.05 in1017.6 mb 0.00 in0.0 mm 0.00 in0.0 mm 0.00 in0.0 mm
07:30 PM 72.2°F22.3°C 60.2°F15.7°C 66% 3.3 mph WSW5.3 kmh WSW 7.0 mph11.3 kmh 30.04 in1017.3 mb 0.00 in0.0 mm 0.00 in0.0 mm 0.00 in0.0 mm
07:35 PM 71.9°F22.2°C 59.9°F15.5°C 66% 2.8 mph SW4.5 kmh SW 10.0 mph16.1 kmh 30.04 in1017.3 mb 0.00 in0.0 mm 0.00 in0.0 mm 0.00 in0.0 mm
07:40 PM 71.6°F22.0°C 60.1°F15.6°C 67% 3.6 mph SW5.8 kmh SW 11.0 mph17.7 kmh 30.05 in1017.6 mb 0.00 in0.0 mm 0.00 in0.0 mm 0.00 in0.0 mm
07:45 PM 71.4°F21.9°C 60.3°F15.7°C 68% 4.6 mph WSW7.4 kmh WSW 11.0 mph17.7 kmh 30.05 in1017.6 mb 0.00 in0.0 mm 0.00 in0.0 mm 0.00 in0.0 mm
07:50 PM 71.1°F21.7°C 60.0°F15.6°C 68% 4.1 mph WSW6.6 kmh WSW 7.0 mph11.3 kmh 30.05 in1017.6 mb 0.00 in0.0 mm 0.00 in0.0 mm 0.00 in0.0 mm
07:55 PM 70.9°F21.6°C 60.2°F15.7°C 69% 3.3 mph WSW5.3 kmh WSW 7.0 mph11.3 kmh 30.05 in1017.6 mb 0.00 in0.0 mm 0.00 in0.0 mm 0.00 in0.0 mm
08:00 PM 70.7°F21.5°C 60.0°F15.6°C 69% 2.9 mph WSW4.7 kmh WSW 5.0 mph8.0 kmh 30.05 in1017.6 mb 0.00 in0.0 mm 0.00 in0.0 mm 0.00 in0.0 mm
08:05 PM 70.5°F21.4°C 60.2°F15.7°C 70% 2.1 mph WSW3.4 kmh WSW 3.0 mph4.8 kmh 30.06 in1017.9 mb 0.00 in0.0 mm 0.00 in0.0 mm 0.00 in0.0 mm
08:10 PM 70.4°F21.3°C 60.1°F15.6°C 70% 1.4 mph WSW2.3 kmh WSW 10.0 mph16.1 kmh 30.06 in1017.9 mb 0.00 in0.0 mm 0.00 in0.0 mm 0.00 in0.0 mm
08:15 PM 70.2°F21.2°C 60.0°F15.6°C 70% 2.3 mph WSW3.7 kmh WSW 10.0 mph16.1 kmh 30.06 in1017.9 mb 0.00 in0.0 mm 0.00 in0.0 mm 0.00 in0.0 mm
08:20 PM 70.2°F21.2°C 60.4°F15.8°C 71% 4.1 mph WSW6.6 kmh WSW 8.0 mph12.9 kmh 30.06 in1017.9 mb 0.00 in0.0 mm 0.00 in0.0 mm 0.00 in0.0 mm
08:25 PM 70.1°F21.2°C 60.3°F15.7°C 71% 4.4 mph SW7.1 kmh SW 6.0 mph9.7 kmh 30.07 in1018.3 mb 0.00 in0.0 mm 0.00 in0.0 mm 0.00 in0.0 mm
08:30 PM 69.9°F21.1°C 60.1°F15.6°C 71% 4.0 mph SW6.4 kmh SW 6.0 mph9.7 kmh 30.07 in1018.3 mb 0.00 in0.0 mm 0.00 in0.0 mm 0.00 in0.0 mm
08:35 PM 69.7°F20.9°C 60.3°F15.7°C 72% 4.1 mph WSW6.6 kmh WSW 6.0 mph9.7 kmh 30.07 in1018.3 mb 0.00 in0.0 mm 0.00 in0.0 mm 0.00 in0.0 mm
08:40 PM 69.6°F20.9°C 60.2°F15.7°C 72% 3.8 mph WSW6.1 kmh WSW 5.0 mph8.0 kmh 30.07 in1018.3 mb 0.00 in0.0 mm 0.00 in0.0 mm 0.00 in0.0 mm
08:45 PM 69.5°F20.8°C 60.1°F15.6°C 72% 3.2 mph WSW5.1 kmh WSW 5.0 mph8.0 kmh 30.07 in1018.3 mb 0.00 in0.0 mm 0.00 in0.0 mm 0.00 in0.0 mm
08:50 PM 69.5°F20.8°C 60.1°F15.6°C 72% 2.9 mph WSW4.7 kmh WSW 6.0 mph9.7 kmh 30.07 in1018.3 mb 0.00 in0.0 mm 0.00 in0.0 mm 0.00 in0.0 mm
08:55 PM 69.4°F20.8°C 60.4°F15.8°C 73% 2.5 mph WSW4.0 kmh WSW 6.0 mph9.7 kmh 30.08 in1018.6 mb 0.00 in0.0 mm 0.00 in0.0 mm 0.00 in0.0 mm
09:00 PM 69.2°F20.7°C 60.2°F15.7°C 73% 2.6 mph WSW4.2 kmh WSW 7.0 mph11.3 kmh 30.08 in1018.6 mb 0.00 in0.0 mm 0.00 in0.0 mm 0.00 in0.0 mm
09:05 PM 69.0°F20.6°C 60.4°F15.8°C 74% 3.5 mph WSW5.6 kmh WSW 9.0 mph14.5 kmh 30.08 in1018.6 mb 0.00 in0.0 mm 0.00 in0.0 mm 0.00 in0.0 mm
09:10 PM 68.8°F20.4°C 60.6°F15.9°C 75% 4.5 mph WSW7.2 kmh WSW 9.0 mph14.5 kmh 30.08 in1018.6 mb 0.00 in0.0 mm 0.00 in0.0 mm 0.00 in0.0 mm
09:15 PM 68.7°F20.4°C 60.8°F16.0°C 76% 5.0 mph WSW8.0 kmh WSW 9.0 mph14.5 kmh 30.08 in1018.6 mb 0.00 in0.0 mm 0.00 in0.0 mm 0.00 in0.0 mm
09:20 PM 68.6°F20.3°C 60.7°F15.9°C 76% 4.5 mph WSW7.2 kmh WSW 7.0 mph11.3 kmh 30.08 in1018.6 mb 0.00 in0.0 mm 0.00 in0.0 mm 0.00 in0.0 mm
09:25 PM 68.5°F20.3°C 60.6°F15.9°C 76% 3.3 mph WSW5.3 kmh WSW 4.0 mph6.4 kmh 30.07 in1018.3 mb 0.00 in0.0 mm 0.00 in0.0 mm 0.00 in0.0 mm
09:30 PM 68.4°F20.2°C 60.9°F16.1°C 77% 2.1 mph WSW3.4 kmh WSW 3.0 mph4.8 kmh 30.08 in1018.6 mb 0.00 in0.0 mm 0.00 in0.0 mm 0.00 in0.0 mm
09:35 PM 68.3°F20.2°C 60.8°F16.0°C 77% 1.4 mph WSW2.3 kmh WSW 3.0 mph4.8 kmh 30.08 in1018.6 mb 0.00 in0.0 mm 0.00 in0.0 mm 0.00 in0.0 mm
09:40 PM 68.1°F20.1°C 60.6°F15.9°C 77% 1.0 mph WSW1.6 kmh WSW 3.0 mph4.8 kmh 30.08 in1018.6 mb 0.00 in0.0 mm 0.00 in0.0 mm 0.00 in0.0 mm
09:45 PM 68.0°F20.0°C 60.5°F15.8°C 77% 1.0 mph WSW1.6 kmh WSW 4.0 mph6.4 kmh 30.08 in1018.6 mb 0.00 in0.0 mm 0.00 in0.0 mm 0.00 in0.0 mm
09:50 PM 67.9°F19.9°C 60.4°F15.8°C 77% 1.5 mph WSW2.4 kmh WSW 4.0 mph6.4 kmh 30.08 in1018.6 mb 0.00 in0.0 mm 0.00 in0.0 mm 0.00 in0.0 mm
09:55 PM 67.8°F19.9°C 60.7°F15.9°C 78% 2.0 mph WSW3.2 kmh WSW 4.0 mph6.4 kmh 30.08 in1018.6 mb 0.00 in0.0 mm 0.00 in0.0 mm 0.00 in0.0 mm
10:00 PM 67.7°F19.8°C 61.0°F16.1°C 79% 1.7 mph WSW2.7 kmh WSW 4.0 mph6.4 kmh 30.08 in1018.6 mb 0.00 in0.0 mm 0.00 in0.0 mm 0.00 in0.0 mm
10:05 PM 67.6°F19.8°C 60.9°F16.1°C 79% 1.2 mph WSW1.9 kmh WSW 4.0 mph6.4 kmh 30.08 in1018.6 mb 0.00 in0.0 mm 0.00 in0.0 mm 0.00 in0.0 mm
10:10 PM 67.5°F19.7°C 60.8°F16.0°C 79% 1.0 mph WSW1.6 kmh WSW 2.0 mph3.2 kmh 30.08 in1018.6 mb 0.00 in0.0 mm 0.00 in0.0 mm 0.00 in0.0 mm
10:15 PM 67.3°F19.6°C 60.6°F15.9°C 79% 0.5 mph WSW0.8 kmh WSW 2.0 mph3.2 kmh 30.08 in1018.6 mb 0.00 in0.0 mm 0.00 in0.0 mm 0.00 in0.0 mm
10:20 PM 67.0°F19.4°C 60.6°F15.9°C 80% Calm Calm 2.0 mph3.2 kmh 30.08 in1018.6 mb 0.00 in0.0 mm 0.00 in0.0 mm 0.00 in0.0 mm
10:25 PM 66.7°F19.3°C 60.3°F15.7°C 80% Calm Calm 2.0 mph3.2 kmh 30.08 in1018.6 mb 0.00 in0.0 mm 0.00 in0.0 mm 0.00 in0.0 mm
10:30 PM 66.4°F19.1°C 60.0°F15.6°C 80% Calm Calm 2.0 mph3.2 kmh 30.08 in1018.6 mb 0.00 in0.0 mm 0.00 in0.0 mm 0.00 in0.0 mm
10:35 PM 65.9°F18.8°C 59.9°F15.5°C 81% 0.4 mph NNE0.6 kmh NNE 3.0 mph4.8 kmh 30.09 in1019.0 mb 0.00 in0.0 mm 0.00 in0.0 mm 0.00 in0.0 mm
10:40 PM 65.9°F18.8°C 60.2°F15.7°C 82% 0.9 mph NNE1.4 kmh NNE 3.0 mph4.8 kmh 30.09 in1019.0 mb 0.00 in0.0 mm 0.00 in0.0 mm 0.00 in0.0 mm
10:45 PM 66.0°F18.9°C 60.3°F15.7°C 82% 0.7 mph NNE1.1 kmh NNE 1.0 mph1.6 kmh 30.09 in1019.0 mb 0.00 in0.0 mm 0.00 in0.0 mm 0.00 in0.0 mm
10:50 PM 66.0°F18.9°C 60.3°F15.7°C 82% 0.2 mph NE0.3 kmh NE 2.0 mph3.2 kmh 30.09 in1019.0 mb 0.00 in0.0 mm 0.00 in0.0 mm 0.00 in0.0 mm
10:55 PM 66.0°F18.9°C 60.3°F15.7°C 82% 0.4 mph NNE0.6 kmh NNE 2.0 mph3.2 kmh 30.09 in1019.0 mb 0.00 in0.0 mm 0.00 in0.0 mm 0.00 in0.0 mm
11:00 PM 66.1°F18.9°C 60.4°F15.8°C 82% 0.9 mph NE1.4 kmh NE 2.0 mph3.2 kmh 30.09 in1019.0 mb 0.00 in0.0 mm 0.00 in0.0 mm 0.00 in0.0 mm
11:05 PM 66.2°F19.0°C 60.5°F15.8°C 82% 1.0 mph NE1.6 kmh NE 2.0 mph3.2 kmh 30.09 in1019.0 mb 0.00 in0.0 mm 0.00 in0.0 mm 0.00 in0.0 mm
11:10 PM 66.3°F19.1°C 60.6°F15.9°C 82% 1.0 mph NE1.6 kmh NE 2.0 mph3.2 kmh 30.09 in1019.0 mb 0.00 in0.0 mm 0.00 in0.0 mm 0.00 in0.0 mm
11:15 PM 66.2°F19.0°C 60.5°F15.8°C 82% 1.0 mph NE1.6 kmh NE 2.0 mph3.2 kmh 30.09 in1019.0 mb 0.00 in0.0 mm 0.00 in0.0 mm 0.00 in0.0 mm
11:20 PM 66.2°F19.0°C 60.5°F15.8°C 82% 0.7 mph NE1.1 kmh NE 2.0 mph3.2 kmh 30.09 in1019.0 mb 0.00 in0.0 mm 0.00 in0.0 mm 0.00 in0.0 mm
11:25 PM 66.3°F19.1°C 60.6°F15.9°C 82% 0.2 mph NE0.3 kmh NE 1.0 mph1.6 kmh 30.09 in1019.0 mb 0.00 in0.0 mm 0.00 in0.0 mm 0.00 in0.0 mm
11:30 PM 66.4°F19.1°C 60.4°F15.8°C 81% 0.1 mph SW0.2 kmh SW 4.0 mph6.4 kmh 30.09 in1019.0 mb 0.00 in0.0 mm 0.00 in0.0 mm 0.00 in0.0 mm
11:35 PM 66.6°F19.2°C 60.6°F15.9°C 81% 0.5 mph WSW0.8 kmh WSW 4.0 mph6.4 kmh 30.09 in1019.0 mb 0.00 in0.0 mm 0.00 in0.0 mm 0.00 in0.0 mm
11:40 PM 66.6°F19.2°C 60.9°F16.1°C 82% 1.0 mph NE1.6 kmh NE 3.0 mph4.8 kmh 30.09 in1019.0 mb 0.00 in0.0 mm 0.00 in0.0 mm 0.00 in0.0 mm
11:45 PM 66.6°F19.2°C 60.9°F16.1°C 82% 1.0 mph NE1.6 kmh NE 3.0 mph4.8 kmh 30.09 in1019.0 mb 0.00 in0.0 mm 0.00 in0.0 mm 0.00 in0.0 mm
11:50 PM 66.6°F19.2°C 60.9°F16.1°C 82% 1.0 mph NE1.6 kmh NE 2.0 mph3.2 kmh 30.09 in1019.0 mb 0.00 in0.0 mm 0.00 in0.0 mm 0.00 in0.0 mm
11:55 PM 66.7°F19.3°C 61.0°F16.1°C 82% 1.0 mph NE1.6 kmh NE 2.0 mph3.2 kmh 30.09 in1019.0 mb 0.00 in0.0 mm 0.00 in0.0 mm 0.00 in0.0 mm